Time;durP1;ratioP1;P1;durP2;ratioP2;P2;SDS_P1;SDS_P2;PMS_P1;PMS_P2;Temp;Humidity;BMP_temperature;BMP_pressure;BME280_temperature;BME280_humidity;BME280_pressure;Samples;Min_cycle;Max_cycle;Signal;HPM_P1;HPM_P2
2023/01/22 00:01:15;;;;;;;;;58.25;43.25;;;;;5.74;100.00;102971.19;5022070;28;45514;-77
2023/01/22 00:03:42;;;;;;;;;51.50;41.00;;;;;5.77;100.00;102966.53;5019636;28;45292;-77
2023/01/22 00:06:09;;;;;;;;;43.75;34.75;;;;;5.75;100.00;102956.78;5020712;28;45434;-76
2023/01/22 00:08:34;;;;;;;;;61.50;43.75;;;;;5.78;100.00;102960.22;5021066;28;45643;-77
2023/01/22 00:11:00;;;;;;;;;50.50;40.50;;;;;5.79;100.00;102966.47;5018909;28;45441;-76
2023/01/22 00:13:26;;;;;;;;;60.00;44.00;;;;;5.78;100.00;102964.72;5021579;28;45382;-76
2023/01/22 00:15:56;;;;;;;;;55.50;45.25;;;;;5.81;100.00;102967.31;5016996;28;45314;-76
2023/01/22 00:18:21;;;;;;;;;53.50;43.75;;;;;5.66;100.00;102967.94;5023400;28;45471;-76
2023/01/22 00:20:51;;;;;;;;;58.25;44.00;;;;;5.53;100.00;102964.88;4998984;28;45496;-76
2023/01/22 00:23:19;;;;;;;;;53.00;44.00;;;;;5.67;100.00;102967.88;5022587;28;45455;-77
2023/01/22 00:25:45;;;;;;;;;49.00;41.50;;;;;5.64;100.00;102959.91;5021956;28;45559;-77
2023/01/22 00:28:11;;;;;;;;;57.25;42.75;;;;;5.65;100.00;102967.06;5023359;28;45623;-76
2023/01/22 00:30:37;;;;;;;;;47.00;40.25;;;;;5.63;100.00;102962.66;5019830;28;46798;-76
2023/01/22 00:33:03;;;;;;;;;64.25;43.50;;;;;5.58;100.00;102965.56;5005442;28;45344;-77
2023/01/22 00:35:29;;;;;;;;;64.00;47.75;;;;;5.48;100.00;102970.44;5019813;28;45402;-76
2023/01/22 00:37:54;;;;;;;;;51.25;43.00;;;;;5.39;100.00;102960.03;5020732;28;45471;-75
2023/01/22 00:40:19;;;;;;;;;57.25;44.75;;;;;5.30;100.00;102946.91;5019874;28;45434;-74
2023/01/22 00:42:45;;;;;;;;;60.00;44.50;;;;;5.34;100.00;102963.81;5022179;28;45347;-75
2023/01/22 00:45:13;;;;;;;;;64.50;48.75;;;;;5.43;100.00;102960.78;5021334;28;45320;-76
2023/01/22 00:47:38;;;;;;;;;43.25;32.00;;;;;5.52;100.00;102973.00;5022771;28;46818;-75
2023/01/22 00:50:04;;;;;;;;;56.75;40.75;;;;;5.48;100.00;102970.44;5021094;28;45372;-75
2023/01/22 00:52:30;;;;;;;;;61.50;45.75;;;;;5.51;100.00;102965.84;5020801;28;45428;-77
2023/01/22 00:54:55;;;;;;;;;62.75;47.00;;;;;5.48;100.00;102958.75;5021002;28;45186;-76
2023/01/22 00:57:20;;;;;;;;;65.00;49.25;;;;;5.30;100.00;102956.81;5020984;28;45245;-77
2023/01/22 00:59:47;;;;;;;;;60.25;47.00;;;;;4.95;100.00;102960.88;5022688;28;45305;-77
2023/01/22 01:02:13;;;;;;;;;59.25;43.75;;;;;4.98;100.00;102952.66;5021321;28;45482;-76
2023/01/22 01:04:38;;;;;;;;;52.25;43.75;;;;;5.04;100.00;102947.06;5023476;28;45384;-78
2023/01/22 01:07:03;;;;;;;;;47.75;41.50;;;;;4.88;100.00;102946.78;5013259;28;45447;-77
2023/01/22 01:09:29;;;;;;;;;48.00;34.25;;;;;4.81;100.00;102939.88;5038254;28;45779;-77
2023/01/22 01:11:54;;;;;;;;;64.75;48.00;;;;;4.80;100.00;102932.72;5029853;28;45537;-78
2023/01/22 01:14:19;;;;;;;;;54.50;45.50;;;;;4.83;100.00;102927.19;5019049;28;45368;-77
2023/01/22 01:16:45;;;;;;;;;58.50;46.25;;;;;4.90;100.00;102939.50;5028923;28;48046;-77
2023/01/22 01:19:11;;;;;;;;;65.50;50.00;;;;;5.05;100.00;102925.44;5020828;28;45761;-77
2023/01/22 01:21:37;;;;;;;;;64.00;47.50;;;;;5.26;100.00;102939.03;5001016;28;45455;-79
2023/01/22 01:24:03;;;;;;;;;63.25;45.00;;;;;5.13;100.00;102946.69;5018579;28;45368;-77
2023/01/22 01:26:32;;;;;;;;;41.50;39.75;;;;;5.19;100.00;102940.22;5011151;28;46286;-77
2023/01/22 01:28:57;;;;;;;;;64.25;49.00;;;;;5.10;100.00;102941.44;5022879;28;45396;-75
2023/01/22 01:31:24;;;;;;;;;55.75;44.25;;;;;5.06;100.00;102955.94;5016973;28;45390;-76
2023/01/22 01:33:50;;;;;;;;;53.50;45.25;;;;;5.06;100.00;102961.34;5021616;28;45348;-76
2023/01/22 01:36:21;;;;;;;;;58.00;40.50;;;;;5.15;100.00;102954.72;5018521;28;45438;-76
2023/01/22 01:38:47;;;;;;;;;50.25;34.50;;;;;5.22;100.00;102956.25;5022558;28;45233;-76
2023/01/22 01:41:14;;;;;;;;;54.00;41.50;;;;;5.30;100.00;102949.59;4998764;28;45510;-75
2023/01/22 01:43:40;;;;;;;;;61.75;46.25;;;;;5.45;100.00;102959.78;5021425;28;45296;-76
2023/01/22 01:46:23;;;;;;;;;50.50;38.25;;;;;5.44;100.00;102947.25;4998820;28;45514;-75
2023/01/22 01:48:54;;;;;;;;;53.00;36.75;;;;;5.16;100.00;102964.56;5018944;28;45219;-75
2023/01/22 01:51:37;;;;;;;;;62.25;44.75;;;;;5.09;100.00;102950.47;5000238;28;45538;-75
2023/01/22 01:54:04;;;;;;;;;62.00;43.25;;;;;4.89;100.00;102940.47;5017596;28;45627;-75
2023/01/22 01:56:34;;;;;;;;;57.00;45.25;;;;;4.90;100.00;102941.31;5020106;28;45404;-76
2023/01/22 01:59:06;;;;;;;;;63.00;43.25;;;;;5.09;100.00;102945.06;5041025;28;45435;-76
2023/01/22 02:01:32;;;;;;;;;68.25;50.50;;;;;5.13;100.00;102957.47;5022129;28;45388;-75
2023/01/22 02:03:59;;;;;;;;;48.75;41.75;;;;;5.07;100.00;102941.53;5040620;28;45428;-76
2023/01/22 02:06:24;;;;;;;;;42.75;39.25;;;;;5.04;100.00;102933.59;5023394;28;46659;-75
2023/01/22 02:08:52;;;;;;;;;54.50;41.75;;;;;4.94;100.00;102934.88;5025433;28;45355;-76
2023/01/22 02:11:18;;;;;;;;;55.25;40.25;;;;;5.00;100.00;102942.72;5020357;28;45358;-75
2023/01/22 02:13:51;;;;;;;;;58.75;45.50;;;;;5.18;100.00;102949.22;5008253;28;45602;-75
2023/01/22 02:16:17;;;;;;;;;54.50;44.00;;;;;4.98;100.00;102952.66;5001942;28;48333;-75
2023/01/22 02:18:42;;;;;;;;;49.25;39.75;;;;;4.97;100.00;102950.91;5022792;28;45455;-76
2023/01/22 02:21:31;;;;;;;;;68.00;48.25;;;;;4.81;100.00;102961.41;5038967;28;45326;-76
2023/01/22 02:23:57;;;;;;;;;65.75;48.50;;;;;5.04;100.00;102952.47;4994210;28;45372;-76
2023/01/22 02:26:22;;;;;;;;;62.50;48.00;;;;;4.92;100.00;102943.00;4980897;28;45491;-75
2023/01/22 02:28:47;;;;;;;;;53.50;44.00;;;;;5.14;100.00;102958.34;4985904;28;45358;-77
2023/01/22 02:31:13;;;;;;;;;70.75;50.50;;;;;4.89;100.00;102950.34;4997272;28;45328;-77
2023/01/22 02:33:38;;;;;;;;;61.00;49.25;;;;;4.69;100.00;102946.56;5001071;28;45663;-76
2023/01/22 02:36:04;;;;;;;;;57.00;46.00;;;;;5.05;100.00;102959.59;4982582;28;46593;-77
2023/01/22 02:38:29;;;;;;;;;64.25;47.25;;;;;5.06;100.00;102961.34;4985826;28;45490;-77
2023/01/22 02:40:55;;;;;;;;;58.25;45.25;;;;;5.04;100.00;102952.47;5013792;28;45387;-76
2023/01/22 02:43:20;;;;;;;;;64.25;44.25;;;;;4.95;100.00;102956.38;4986213;28;45294;-77
2023/01/22 02:45:45;;;;;;;;;64.25;48.00;;;;;5.01;100.00;102945.38;4981039;28;45502;-75
2023/01/22 02:48:11;;;;;;;;;63.50;47.00;;;;;5.19;100.00;102957.22;4983052;28;45407;-76
2023/01/22 02:50:36;;;;;;;;;67.00;51.00;;;;;5.20;100.00;102953.59;5006873;28;45442;-76
2023/01/22 02:53:02;;;;;;;;;59.25;48.50;;;;;5.03;100.00;102942.63;4984697;28;45518;-76
2023/01/22 02:55:27;;;;;;;;;64.50;49.50;;;;;5.23;100.00;102953.50;4981533;28;47919;-76
2023/01/22 02:57:52;;;;;;;;;61.75;47.25;;;;;5.38;100.00;102950.19;4987184;28;45439;-76
2023/01/22 03:00:18;;;;;;;;;69.25;47.75;;;;;5.53;100.00;102954.09;4984168;28;45479;-76
2023/01/22 03:02:43;;;;;;;;;71.25;54.00;;;;;5.32;100.00;102958.53;4985707;28;45342;-75
2023/01/22 03:05:09;;;;;;;;;69.75;45.25;;;;;5.23;100.00;102958.00;4986012;28;47065;-75
2023/01/22 03:07:46;;;;;;;;;62.00;48.75;;;;;4.87;100.00;102952.22;4977840;28;45304;-75
2023/01/22 03:10:17;;;;;;;;;52.50;42.25;;;;;4.86;100.00;102942.38;4982494;28;45385;-76
2023/01/22 03:21:18;;;;;;;;;65.75;48.50;;;;;4.88;100.00;102949.47;4982217;28;45568;-76
2023/01/22 03:23:46;;;;;;;;;64.75;47.75;;;;;4.84;100.00;102936.16;5024257;28;45475;-76
2023/01/22 03:26:12;;;;;;;;;79.50;54.75;;;;;4.85;100.00;102949.56;5019505;28;46337;-75
2023/01/22 03:28:38;;;;;;;;;63.50;49.75;;;;;4.83;100.00;102947.88;5019438;28;45418;-75
2023/01/22 03:31:04;;;;;;;;;72.75;50.75;;;;;4.97;100.00;102951.78;5001595;28;45560;-76
2023/01/22 03:33:30;;;;;;;;;66.25;52.75;;;;;4.95;100.00;102944.72;5019662;28;45415;-76
2023/01/22 03:36:03;;;;;;;;;66.75;46.25;;;;;5.02;100.00;102936.34;5018743;28;45426;-76
2023/01/22 03:38:29;;;;;;;;;62.50;48.00;;;;;5.01;100.00;102949.88;5022583;28;45204;-76
2023/01/22 03:41:02;;;;;;;;;64.50;46.50;;;;;5.01;100.00;102950.75;5018659;28;45401;-76
2023/01/22 03:43:28;;;;;;;;;62.75;45.75;;;;;5.18;100.00;102943.84;5024700;28;45324;-76
2023/01/22 03:45:59;;;;;;;;;64.00;49.25;;;;;5.11;100.00;102953.09;5019695;28;45473;-76
2023/01/22 03:48:25;;;;;;;;;64.25;48.75;;;;;5.05;100.00;102959.59;5039201;28;45448;-76
2023/01/22 03:50:50;;;;;;;;;56.75;41.75;;;;;4.92;100.00;102945.72;5035776;28;45369;-76
2023/01/22 03:53:15;;;;;;;;;55.00;44.00;;;;;4.89;100.00;102942.28;5023294;28;46069;-76
2023/01/22 03:55:41;;;;;;;;;60.25;46.50;;;;;4.86;100.00;102948.66;5021344;28;46256;-76
2023/01/22 03:58:06;;;;;;;;;60.00;43.50;;;;;5.00;100.00;102946.28;5005679;28;45392;-76
2023/01/22 04:00:31;;;;;;;;;61.50;47.00;;;;;4.89;100.00;102943.16;5022372;28;45409;-76
2023/01/22 04:02:57;;;;;;;;;71.25;52.25;;;;;5.19;100.00;102946.44;5024099;28;45417;-76
2023/01/22 04:05:22;;;;;;;;;86.50;61.25;;;;;5.22;100.00;102949.03;5003739;28;46870;-76
2023/01/22 04:07:49;;;;;;;;;76.50;58.00;;;;;5.23;100.00;102950.78;5019303;28;45730;-76
2023/01/22 04:10:15;;;;;;;;;72.25;55.00;;;;;4.83;100.00;102942.47;5033586;28;45421;-76
2023/01/22 04:12:41;;;;;;;;;67.25;46.00;;;;;4.63;100.00;102952.19;5017220;28;45347;-76
2023/01/22 04:15:07;;;;;;;;;59.00;41.50;;;;;4.83;100.00;102946.06;5032768;28;47187;-76
2023/01/22 04:17:32;;;;;;;;;67.50;51.00;;;;;4.87;100.00;102952.22;5022828;28;45362;-76
2023/01/22 04:19:57;;;;;;;;;58.75;45.00;;;;;4.88;100.00;102938.69;5037426;28;45419;-76
2023/01/22 04:22:23;;;;;;;;;59.25;44.00;;;;;4.83;100.00;102935.28;5019443;28;45391;-76
2023/01/22 04:24:48;;;;;;;;;47.00;39.75;;;;;4.93;100.00;102943.91;5023323;28;46194;-76
2023/01/22 04:27:13;;;;;;;;;27.00;27.00;;;;;4.69;100.00;102934.94;5019307;28;45465;-76
2023/01/22 04:29:39;;;;;;;;;51.50;43.25;;;;;4.72;100.00;102933.94;5021040;28;45430;-77
2023/01/22 04:32:04;;;;;;;;;62.25;46.25;;;;;4.71;100.00;102933.06;5015000;28;45488;-76
2023/01/22 04:34:29;;;;;;;;;55.50;43.25;;;;;4.78;100.00;102936.41;5020228;28;47116;-77
2023/01/22 04:36:55;;;;;;;;;51.75;38.00;;;;;4.72;100.00;102936.63;5015778;28;45433;-76
2023/01/22 04:39:20;;;;;;;;;38.50;32.00;;;;;4.79;100.00;102947.13;5023566;28;45350;-77
2023/01/22 04:41:45;;;;;;;;;40.50;30.75;;;;;4.65;100.00;102927.91;5018211;28;45459;-76
2023/01/22 04:44:11;;;;;;;;;54.50;42.00;;;;;4.81;100.00;102922.81;5023345;28;45488;-76
2023/01/22 04:46:36;;;;;;;;;48.00;38.00;;;;;4.86;100.00;102920.81;5018581;28;45334;-76
2023/01/22 04:49:02;;;;;;;;;58.50;40.50;;;;;5.05;100.00;102916.47;5023047;28;45299;-76
2023/01/22 04:51:27;;;;;;;;;50.25;41.25;;;;;5.04;100.00;102925.53;5020077;28;45628;-76
2023/01/22 04:53:52;;;;;;;;;56.25;39.25;;;;;4.93;100.00;102916.97;5037371;28;45880;-76
2023/01/22 04:56:18;;;;;;;;;45.75;40.25;;;;;5.10;100.00;102911.81;5035763;28;45397;-76
2023/01/22 04:58:43;;;;;;;;;54.00;38.25;;;;;5.03;100.00;102897.69;5021885;28;46072;-76
2023/01/22 05:01:08;;;;;;;;;47.00;39.75;;;;;5.22;100.00;102919.38;5018107;28;45534;-77
2023/01/22 05:03:34;;;;;;;;;50.00;41.25;;;;;5.02;100.00;102903.13;5037554;28;45296;-77
2023/01/22 05:06:03;;;;;;;;;48.00;39.00;;;;;4.94;100.00;102897.16;5001776;28;45537;-76
2023/01/22 05:08:28;;;;;;;;;52.75;43.75;;;;;5.07;100.00;102920.88;5015562;28;45346;-77
2023/01/22 05:10:54;;;;;;;;;48.50;37.50;;;;;4.96;100.00;102909.66;5020027;28;45702;-76
2023/01/22 05:13:19;;;;;;;;;50.50;42.25;;;;;4.87;100.00;102896.53;5022908;28;46776;-77
2023/01/22 05:15:44;;;;;;;;;48.75;39.50;;;;;5.00;100.00;102896.94;5019899;28;45302;-76
2023/01/22 05:18:10;;;;;;;;;64.00;45.50;;;;;4.95;100.00;102897.13;5022808;28;45466;-76
2023/01/22 05:20:35;;;;;;;;;49.25;42.00;;;;;4.75;100.00;102890.75;5019450;28;45424;-77
2023/01/22 05:23:00;;;;;;;;;69.50;49.25;;;;;4.79;100.00;102898.66;5022461;28;46742;-77
2023/01/22 05:25:26;;;;;;;;;50.00;39.50;;;;;4.75;100.00;102874.59;5020602;28;45146;-77
2023/01/22 05:27:51;;;;;;;;;42.25;39.50;;;;;4.79;100.00;102881.59;5022567;28;45315;-77
2023/01/22 05:30:16;;;;;;;;;59.75;43.00;;;;;5.02;100.00;102900.44;5003245;28;45607;-77
2023/01/22 05:32:42;;;;;;;;;53.50;43.50;;;;;5.16;100.00;102902.59;5017800;28;45497;-77
2023/01/22 05:35:07;;;;;;;;;43.75;32.75;;;;;5.06;100.00;102902.06;5002784;28;45468;-76
2023/01/22 05:37:33;;;;;;;;;57.50;43.25;;;;;5.07;100.00;102903.81;5020080;28;45304;-76
2023/01/22 05:39:58;;;;;;;;;40.25;38.00;;;;;4.98;100.00;102904.19;5022400;28;45617;-77
2023/01/22 05:42:24;;;;;;;;;57.75;41.75;;;;;4.69;100.00;102898.09;5031199;28;47152;-77
2023/01/22 05:44:49;;;;;;;;;57.25;43.25;;;;;4.82;100.00;102894.97;5022271;28;45263;-77
2023/01/22 05:47:14;;;;;;;;;61.75;46.00;;;;;4.92;100.00;102893.66;5019432;28;45627;-76
2023/01/22 05:49:40;;;;;;;;;52.50;45.25;;;;;4.78;100.00;102893.31;5037925;28;45290;-77
2023/01/22 05:52:05;;;;;;;;;50.00;40.25;;;;;4.94;100.00;102897.16;5032642;28;46102;-77
2023/01/22 05:54:31;;;;;;;;;50.50;39.00;;;;;4.91;100.00;102894.59;5021493;28;45406;-76
2023/01/22 05:56:56;;;;;;;;;67.25;45.50;;;;;4.91;100.00;102894.59;5035136;28;45383;-77
2023/01/22 05:59:21;;;;;;;;;70.75;49.00;;;;;4.88;100.00;102883.94;5022630;28;45382;-77
2023/01/22 06:01:47;;;;;;;;;51.75;43.25;;;;;5.02;100.00;102895.06;5020231;28;45465;-76
2023/01/22 06:04:12;;;;;;;;;62.25;45.25;;;;;4.80;100.00;102888.75;5021747;28;45837;-77
2023/01/22 06:06:37;;;;;;;;;55.75;46.50;;;;;4.89;100.00;102891.09;5020398;28;45931;-77
2023/01/22 06:09:03;;;;;;;;;43.25;33.25;;;;;4.74;100.00;102878.22;5022696;28;45380;-77
2023/01/22 06:11:29;;;;;;;;;54.25;45.75;;;;;4.77;100.00;102888.84;5015765;28;45335;-77
2023/01/22 06:13:54;;;;;;;;;62.50;45.50;;;;;4.66;100.00;102887.47;5022048;28;45459;-77
2023/01/22 06:16:20;;;;;;;;;41.00;40.75;;;;;4.63;100.00;102890.25;5016550;28;45269;-77
2023/01/22 06:18:45;;;;;;;;;52.00;41.00;;;;;4.69;100.00;102895.41;5004291;28;45349;-77
2023/01/22 06:21:10;;;;;;;;;52.25;43.50;;;;;4.61;100.00;102899.31;5033815;28;46855;-75
2023/01/22 06:23:36;;;;;;;;;59.75;46.00;;;;;4.47;100.00;102899.84;5021702;28;45310;-76
2023/01/22 06:26:03;;;;;;;;;54.25;44.50;;;;;4.57;100.00;102903.97;5018504;28;45373;-76
2023/01/22 06:28:29;;;;;;;;;56.25;41.75;;;;;4.54;100.00;102904.06;5022209;28;45463;-76
2023/01/22 06:30:56;;;;;;;;;62.25;47.25;;;;;4.45;100.00;102893.66;5018502;28;45282;-76
2023/01/22 06:33:22;;;;;;;;;57.75;44.00;;;;;4.47;100.00;102891.78;5001538;28;45607;-76
2023/01/22 06:35:55;;;;;;;;;63.75;43.75;;;;;4.57;100.00;102897.69;5018988;28;45313;-76
2023/01/22 06:38:22;;;;;;;;;57.00;41.75;;;;;4.61;100.00;102900.22;5020722;28;45372;-76
2023/01/22 06:40:52;;;;;;;;;63.50;42.75;;;;;4.62;100.00;102899.28;5016177;28;46612;-76
2023/01/22 06:43:18;;;;;;;;;47.50;42.50;;;;;4.67;100.00;102900.00;5022469;28;45321;-76
2023/01/22 06:45:43;;;;;;;;;32.75;29.25;;;;;4.59;100.00;102902.09;5020634;28;45358;-77
2023/01/22 06:48:08;;;;;;;;;59.50;43.00;;;;;4.41;100.00;102891.13;5025161;28;45343;-76
2023/01/22 06:50:34;;;;;;;;;55.00;43.50;;;;;4.41;100.00;102902.78;5021840;28;46154;-75
2023/01/22 06:53:00;;;;;;;;;45.50;39.75;;;;;4.28;100.00;102904.16;5024861;28;45324;-76
2023/01/22 06:55:25;;;;;;;;;49.75;42.50;;;;;4.48;100.00;102911.50;5004928;28;45356;-76
2023/01/22 06:57:53;;;;;;;;;46.00;30.00;;;;;4.32;100.00;102919.25;5025254;28;45448;-76
2023/01/22 07:00:19;;;;;;;;;44.25;34.50;;;;;4.44;100.00;102913.44;5004535;28;46690;-76
2023/01/22 07:02:45;;;;;;;;;54.75;42.75;;;;;4.62;100.00;102912.75;5024360;28;45331;-76
2023/01/22 07:05:10;;;;;;;;;61.25;48.00;;;;;4.53;100.00;102909.53;5023485;28;45543;-75
2023/01/22 07:07:35;;;;;;;;;55.75;33.75;;;;;4.32;100.00;102908.47;5021130;28;45230;-75
2023/01/22 07:10:01;;;;;;;;;53.50;39.00;;;;;4.31;100.00;102912.09;5023834;28;46567;-76
2023/01/22 07:12:26;;;;;;;;;60.50;43.75;;;;;4.31;100.00;102901.34;5021348;28;45273;-76
2023/01/22 07:14:51;;;;;;;;;59.50;44.50;;;;;4.56;100.00;102926.44;5023628;28;45215;-76
2023/01/22 07:17:17;;;;;;;;;55.50;43.25;;;;;4.61;100.00;102926.25;5006116;28;45396;-76
2023/01/22 07:19:42;;;;;;;;;56.50;45.75;;;;;4.46;100.00;102938.47;5039311;28;46942;-76
2023/01/22 07:22:07;;;;;;;;;53.00;42.75;;;;;4.56;100.00;102928.25;5021652;28;45386;-76
2023/01/22 07:24:33;;;;;;;;;49.50;40.75;;;;;4.58;100.00;102931.75;5024869;28;45228;-76
2023/01/22 07:27:00;;;;;;;;;45.50;36.00;;;;;4.56;100.00;102939.00;5018541;28;45632;-76
2023/01/22 07:29:25;;;;;;;;;45.50;32.75;;;;;4.65;100.00;102936.00;5017867;28;46663;-76
2023/01/22 07:31:51;;;;;;;;;59.50;44.75;;;;;4.69;100.00;102949.28;5017707;28;45281;-75
2023/01/22 07:34:16;;;;;;;;;54.50;42.00;;;;;4.70;100.00;102945.66;5024256;28;45321;-76
2023/01/22 07:36:41;;;;;;;;;45.00;41.00;;;;;4.80;100.00;102939.91;5018028;28;45321;-75
2023/01/22 07:39:06;;;;;;;;;40.25;36.50;;;;;4.94;100.00;102949.22;5024274;28;45412;-77
2023/01/22 07:41:32;;;;;;;;;51.50;41.75;;;;;5.16;100.00;102957.38;5018777;28;45374;-76
2023/01/22 07:43:59;;;;;;;;;55.00;42.25;;;;;5.13;100.00;102953.91;5039627;28;45515;-76
2023/01/22 07:46:25;;;;;;;;;54.25;41.25;;;;;5.05;100.00;102951.50;5020159;28;45553;-76
2023/01/22 07:48:50;;;;;;;;;46.25;37.25;;;;;4.92;100.00;102952.91;5004840;28;47328;-76
2023/01/22 07:51:16;;;;;;;;;50.75;38.75;;;;;4.95;100.00;102940.22;5020327;28;45394;-76
2023/01/22 07:53:41;;;;;;;;;45.00;33.25;;;;;4.99;100.00;102943.66;5022038;28;45217;-77
2023/01/22 07:56:07;;;;;;;;;39.50;38.25;;;;;4.97;100.00;102956.28;5037421;28;45546;-77
2023/01/22 07:58:32;;;;;;;;;56.75;41.00;;;;;4.92;100.00;102959.19;5038782;28;47095;-76
2023/01/22 08:00:58;;;;;;;;;38.75;33.50;;;;;4.86;100.00;102956.72;5035375;28;45347;-76
2023/01/22 08:03:23;;;;;;;;;38.75;38.00;;;;;4.94;100.00;102951.03;5037577;28;45348;-76
2023/01/22 08:05:48;;;;;;;;;34.00;27.25;;;;;4.89;100.00;102959.31;5021587;28;45360;-76
2023/01/22 08:08:17;;;;;;;;;46.75;35.25;;;;;5.00;100.00;102967.84;5039035;28;47156;-77
2023/01/22 08:10:43;;;;;;;;;45.00;36.50;;;;;5.13;100.00;102973.63;5019972;28;45404;-77
2023/01/22 08:13:09;;;;;;;;;38.00;32.50;;;;;5.03;100.00;102958.78;5016142;28;45404;-77
2023/01/22 08:15:34;;;;;;;;;47.25;42.25;;;;;5.00;100.00;102966.97;5003191;28;45560;-77
2023/01/22 08:18:00;;;;;;;;;46.00;39.50;;;;;5.12;100.00;102974.56;5005605;28;46844;-76
2023/01/22 08:20:25;;;;;;;;;30.00;27.25;;;;;5.29;100.00;102980.19;5003586;28;45312;-76
2023/01/22 08:22:57;;;;;;;;;46.00;37.75;;;;;5.31;100.00;102978.31;5038713;28;45198;-76
2023/01/22 08:25:22;;;;;;;;;47.50;41.75;;;;;5.18;100.00;102989.66;5004116;28;46436;-76
2023/01/22 08:27:47;;;;;;;;;44.25;34.25;;;;;5.23;100.00;102982.25;5037769;28;46978;-76
2023/01/22 08:30:14;;;;;;;;;47.00;39.75;;;;;5.29;100.00;102985.59;5020256;28;45436;-77
2023/01/22 08:32:40;;;;;;;;;44.25;33.00;;;;;5.37;100.00;102980.78;5018262;28;45390;-77
2023/01/22 08:35:07;;;;;;;;;50.50;38.00;;;;;5.32;100.00;102990.88;5003961;28;45196;-76
2023/01/22 08:37:32;;;;;;;;;51.25;40.50;;;;;5.26;100.00;102985.69;5001018;28;48171;-76
2023/01/22 08:39:57;;;;;;;;;44.75;36.00;;;;;5.32;100.00;102993.56;5022892;28;45292;-76
2023/01/22 08:42:23;;;;;;;;;49.50;41.75;;;;;5.28;100.00;102981.13;5020038;28;45534;-76
2023/01/22 08:44:48;;;;;;;;;52.25;36.25;;;;;5.28;100.00;102989.22;5024075;28;45581;-77
2023/01/22 08:47:14;;;;;;;;;41.75;33.00;;;;;5.31;100.00;102994.50;5019348;28;45398;-76
2023/01/22 08:49:39;;;;;;;;;48.25;35.25;;;;;5.31;100.00;102983.72;5005078;28;45326;-77
2023/01/22 08:52:04;;;;;;;;;59.25;41.00;;;;;5.33;100.00;102981.81;5020986;28;45233;-77
2023/01/22 08:54:30;;;;;;;;;25.25;25.25;;;;;5.05;100.00;102984.72;5023757;28;45348;-79
2023/01/22 08:56:55;;;;;;;;;42.50;27.50;;;;;5.23;100.00;102993.91;5018388;28;45691;-76
2023/01/22 08:59:20;;;;;;;;;39.50;35.00;;;;;5.35;100.00;103000.63;5022973;28;45740;-77
2023/01/22 09:01:46;;;;;;;;;50.25;37.75;;;;;5.47;100.00;102979.47;4998324;28;45850;-77
2023/01/22 09:04:11;;;;;;;;;31.25;18.75;;;;;5.61;100.00;102996.91;5038171;28;45649;-77
2023/01/22 09:06:38;;;;;;;;;46.00;34.75;;;;;5.75;100.00;103008.03;4996801;28;46447;-76
2023/01/22 09:09:05;;;;;;;;;31.00;25.75;;;;;5.82;100.00;103001.44;5004362;28;45491;-77
2023/01/22 09:11:31;;;;;;;;;36.00;34.50;;;;;5.92;100.00;103010.91;5018843;28;45297;-77
2023/01/22 09:13:56;;;;;;;;;44.50;33.25;;;;;5.60;100.00;102995.16;5023645;28;45350;-78
2023/01/22 09:16:23;;;;;;;;;35.00;33.25;;;;;5.75;100.00;102999.94;5016429;28;46127;-78
2023/01/22 09:18:48;;;;;;;;;44.25;32.25;;;;;5.80;100.00;103006.00;5022595;28;45368;-79
2023/01/22 09:21:14;;;;;;;;;45.50;41.00;;;;;5.85;100.00;102985.09;5016639;28;45367;-78
2023/01/22 09:23:39;;;;;;;;;36.00;32.00;;;;;5.76;100.00;103007.97;5000516;28;45512;-77
2023/01/22 09:26:05;;;;;;;;;41.00;36.75;;;;;5.52;100.00;102998.16;4996708;28;45443;-78
2023/01/22 09:28:30;;;;;;;;;34.50;26.25;;;;;5.66;100.00;103000.28;5002858;28;45288;-78
2023/01/22 09:30:55;;;;;;;;;50.00;39.75;;;;;5.93;100.00;103001.88;4997101;28;45999;-77
2023/01/22 09:33:21;;;;;;;;;47.00;41.50;;;;;5.74;100.00;103006.25;5000438;28;45411;-78
2023/01/22 09:35:46;;;;;;;;;44.50;35.50;;;;;5.95;100.00;103001.84;5013948;28;48223;-77
2023/01/22 09:38:12;;;;;;;;;49.00;38.00;;;;;5.96;100.00;103009.88;5016483;28;45382;-78
2023/01/22 09:40:51;;;;;;;;;40.00;36.75;;;;;5.88;100.00;103001.22;4999488;28;45406;-78
2023/01/22 09:43:32;;;;;;;;;46.00;34.25;;;;;5.93;100.00;103009.09;5034895;28;45586;-77
2023/01/22 09:46:02;;;;;;;;;56.00;39.50;;;;;6.23;100.00;103011.41;4999427;28;46338;-76
2023/01/22 09:48:42;;;;;;;;;44.50;32.50;;;;;6.22;100.00;103012.34;5003832;28;45339;-76
2023/01/22 09:51:18;;;;;;;;;41.75;38.75;;;;;6.22;100.00;103016.84;4999385;28;45487;-76
2023/01/22 09:53:50;;;;;;;;;38.25;34.50;;;;;6.10;100.00;103029.06;5013885;28;45315;-76
2023/01/22 09:56:21;;;;;;;;;42.50;35.50;;;;;6.16;100.00;103023.41;4993688;28;46229;-76
2023/01/22 09:58:50;;;;;;;;;36.00;32.00;;;;;6.17;100.00;103024.28;5015028;28;45222;-77
2023/01/22 10:01:17;;;;;;;;;34.00;31.75;;;;;5.90;100.00;103020.91;5031917;28;45391;-78
2023/01/22 10:03:47;;;;;;;;;52.75;38.25;;;;;5.93;100.00;103028.00;5002382;28;45355;-76
2023/01/22 10:06:20;;;;;;;;;45.00;36.75;;;;;5.84;100.00;103026.53;4997391;28;45329;-77
2023/01/22 10:09:06;;;;;;;;;36.75;27.50;;;;;5.73;100.00;103024.25;5016921;28;45762;-77
2023/01/22 10:11:32;;;;;;;;;45.50;40.25;;;;;6.20;100.00;103030.44;4997883;28;45876;-76
2023/01/22 10:14:00;;;;;;;;;35.00;27.50;;;;;6.27;100.00;103030.19;5002586;28;45462;-75
2023/01/22 10:16:25;;;;;;;;;43.00;35.25;;;;;6.20;100.00;103027.75;5011441;28;47478;-78
2023/01/22 10:19:17;;;;;;;;;45.00;36.75;;;;;5.86;100.00;103025.50;5004835;28;45360;-78
2023/01/22 10:22:06;;;;;;;;;32.50;30.00;;;;;6.18;100.00;103035.03;4997402;28;45385;-76
2023/01/22 10:24:31;;;;;;;;;39.50;34.75;;;;;6.38;100.00;103012.56;5019433;28;45494;-76
2023/01/22 10:27:07;;;;;;;;;39.25;31.50;;;;;6.55;100.00;103009.13;5019368;28;45408;-76
2023/01/22 10:29:35;;;;;;;;;39.75;31.25;;;;;6.55;100.00;103014.53;5037716;28;44934;-77
2023/01/22 10:32:04;;;;;;;;;37.00;29.00;;;;;6.75;100.00;103001.00;5020729;28;45416;-76
2023/01/22 10:34:35;;;;;;;;;32.25;30.00;;;;;6.45;100.00;103010.47;5020614;28;45301;-77
2023/01/22 10:37:17;;;;;;;;;38.25;27.25;;;;;6.45;100.00;103010.47;5000983;28;45385;-77
2023/01/22 10:39:46;;;;;;;;;41.00;21.25;;;;;6.59;100.00;103011.63;5023271;28;45471;-77
2023/01/22 10:42:20;;;;;;;;;35.75;29.25;;;;;6.74;100.00;103007.34;5001011;28;45305;-77
2023/01/22 10:44:46;;;;;;;;;33.25;28.00;;;;;6.69;100.00;103017.50;5025339;28;45468;-77
2023/01/22 10:47:21;;;;;;;;;33.00;27.00;;;;;6.74;100.00;103001.97;5002073;28;47918;-77
2023/01/22 10:49:48;;;;;;;;;37.50;29.50;;;;;6.44;100.00;103003.31;5024329;28;45405;-77
2023/01/22 10:52:22;;;;;;;;;36.00;28.75;;;;;6.67;100.00;103003.19;5018904;28;45605;-77
2023/01/22 10:54:55;;;;;;;;;34.50;25.50;;;;;6.70;100.00;103003.06;5025591;28;45308;-77
2023/01/22 10:57:24;;;;;;;;;38.50;33.25;;;;;6.76;100.00;102993.78;5021843;28;47219;-76
2023/01/22 11:00:00;;;;;;;;;37.50;29.00;;;;;6.86;100.00;103003.25;5025060;28;45269;-78
2023/01/22 11:02:25;;;;;;;;;35.50;27.25;;;;;6.91;100.00;103002.09;5020892;28;45308;-76
2023/01/22 11:04:52;;;;;;;;;35.25;29.25;;;;;6.70;100.00;103000.34;5025233;28;45368;-75
2023/01/22 11:07:25;;;;;;;;;32.75;27.00;;;;;6.84;100.00;103000.59;5022610;28;45496;-77
2023/01/22 11:10:10;;;;;;;;;41.25;29.25;;;;;6.55;100.00;103009.13;5024045;28;45510;-77
2023/01/22 11:12:47;;;;;;;;;34.25;29.75;;;;;6.71;100.00;102987.72;5020818;28;45478;-78
2023/01/22 11:15:21;;;;;;;;;55.00;40.00;;;;;6.88;100.00;102988.69;5024896;28;45329;-77
2023/01/22 11:17:56;;;;;;;;;39.25;27.75;;;;;6.71;100.00;102994.00;5020298;28;45449;-77